Time;durP1;ratioP1;P1;durP2;ratioP2;P2;SDS_P1;SDS_P2;PMS_P1;PMS_P2;Temp;Humidity;BMP_temperature;BMP_pressure;BME280_temperature;BME280_humidity;BME280_pressure;Samples;Min_cycle;Max_cycle;Signal;HPM_P1;HPM_P2
2024/01/23 00:02:00;;;;;;;14.23;2.40;;;8.50;99.90;;;;;;5100545;28;20031;-32
2024/01/23 00:04:26;;;;;;;13.27;2.63;;;8.50;99.90;;;;;;5101558;28;20024;-37
2024/01/23 00:06:52;;;;;;;12.48;3.00;;;8.50;99.90;;;;;;5100869;28;20084;-36
2024/01/23 00:09:17;;;;;;;12.27;2.45;;;8.50;99.90;;;;;;5100854;28;20032;-35
2024/01/23 00:11:43;;;;;;;11.20;2.40;;;8.40;99.90;;;;;;5100937;28;20062;-36
2024/01/23 00:14:09;;;;;;;10.82;2.47;;;8.50;99.90;;;;;;5101025;28;20520;-36
2024/01/23 00:16:37;;;;;;;12.73;3.53;;;8.50;99.90;;;;;;5101049;28;20392;-34
2024/01/23 00:19:03;;;;;;;13.75;2.85;;;8.40;99.90;;;;;;5101253;28;20024;-38
2024/01/23 00:21:29;;;;;;;14.75;3.47;;;8.40;99.90;;;;;;5100437;28;20039;-35
2024/01/23 00:23:55;;;;;;;16.40;2.90;;;8.40;99.90;;;;;;5101184;28;20034;-32
2024/01/23 00:26:20;;;;;;;14.20;3.35;;;8.40;99.90;;;;;;5100361;28;20150;-35
2024/01/23 00:28:46;;;;;;;17.55;3.30;;;8.40;99.90;;;;;;5100083;28;20026;-33
2024/01/23 00:31:11;;;;;;;13.55;2.90;;;8.40;99.90;;;;;;5099912;28;20031;-38
2024/01/23 00:33:37;;;;;;;13.10;3.63;;;8.30;99.90;;;;;;5100643;28;20031;-36
2024/01/23 00:36:04;;;;;;;14.10;3.30;;;8.30;99.90;;;;;;5099745;28;20103;-35
2024/01/23 00:38:29;;;;;;;11.50;3.13;;;8.30;99.90;;;;;;5100417;28;20038;-34
2024/01/23 00:40:55;;;;;;;19.05;3.67;;;8.30;99.90;;;;;;5100384;28;20425;-35
2024/01/23 00:43:23;;;;;;;15.25;3.80;;;8.30;99.90;;;;;;5099435;28;20034;-37
2024/01/23 00:45:50;;;;;;;16.05;3.80;;;8.20;99.90;;;;;;5100975;28;20031;-37
2024/01/23 00:48:16;;;;;;;19.83;3.83;;;8.20;99.90;;;;;;5100750;28;20012;-35
2024/01/23 00:50:41;;;;;;;14.82;3.50;;;8.20;99.90;;;;;;5100498;28;20023;-35
2024/01/23 00:53:07;;;;;;;14.18;3.42;;;8.20;99.90;;;;;;5099879;28;20031;-34
2024/01/23 00:55:33;;;;;;;15.88;3.58;;;8.20;99.90;;;;;;5100143;28;20020;-35
2024/01/23 00:57:58;;;;;;;16.67;3.60;;;8.20;99.90;;;;;;5099489;28;20120;-35
2024/01/23 01:00:24;;;;;;;16.45;3.90;;;8.20;99.90;;;;;;5100502;28;20023;-37
2024/01/23 01:02:49;;;;;;;17.63;3.90;;;8.20;99.90;;;;;;5100936;28;20124;-36
2024/01/23 01:05:15;;;;;;;11.20;3.50;;;8.20;99.90;;;;;;5099487;28;20382;-36
2024/01/23 01:07:40;;;;;;;17.73;3.15;;;8.20;99.90;;;;;;5100001;28;20038;-38
2024/01/23 01:10:06;;;;;;;11.35;3.17;;;8.20;99.90;;;;;;5098665;28;20034;-33
2024/01/23 01:12:34;;;;;;;16.33;3.15;;;8.20;99.90;;;;;;5099887;28;20055;-32
2024/01/23 01:15:00;;;;;;;14.60;3.60;;;8.20;99.90;;;;;;5100088;28;20023;-33
2024/01/23 01:17:27;;;;;;;13.20;3.00;;;8.20;99.90;;;;;;5099481;28;20786;-33
2024/01/23 01:19:56;;;;;;;11.73;3.50;;;8.20;99.90;;;;;;5099274;28;20053;-32
2024/01/23 01:22:21;;;;;;;13.73;3.42;;;8.20;99.90;;;;;;5099546;28;20092;-36
2024/01/23 01:24:47;;;;;;;12.70;3.08;;;8.20;99.90;;;;;;5099621;28;20047;-34
2024/01/23 01:27:13;;;;;;;14.55;3.65;;;8.20;99.90;;;;;;5099475;28;20028;-36
2024/01/23 01:29:38;;;;;;;15.75;3.40;;;8.20;99.90;;;;;;5100133;28;20020;-33
2024/01/23 01:32:04;;;;;;;14.82;3.50;;;8.20;99.90;;;;;;5098876;28;20035;-35
2024/01/23 01:34:31;;;;;;;13.27;3.00;;;8.20;99.90;;;;;;5099664;28;20447;-37
2024/01/23 01:36:57;;;;;;;17.02;3.83;;;8.10;99.90;;;;;;5099409;28;20024;-34
2024/01/23 01:39:23;;;;;;;15.32;2.95;;;8.10;99.90;;;;;;5098317;28;20130;-34
2024/01/23 01:41:55;;;;;;;16.33;3.90;;;8.00;99.90;;;;;;5099674;28;20040;-36
2024/01/23 01:44:21;;;;;;;18.42;3.30;;;8.00;99.90;;;;;;5099832;28;20030;-33
2024/01/23 01:46:48;;;;;;;16.02;3.45;;;8.00;99.90;;;;;;5099461;28;20024;-37
2024/01/23 01:49:15;;;;;;;13.45;3.28;;;7.90;99.90;;;;;;5098962;28;20064;-33
2024/01/23 01:51:41;;;;;;;17.60;3.15;;;7.90;99.90;;;;;;5099656;28;20026;-35
2024/01/23 01:54:07;;;;;;;14.43;3.35;;;7.90;99.90;;;;;;5100290;28;20034;-36
2024/01/23 01:56:34;;;;;;;15.02;2.92;;;7.90;99.90;;;;;;5099220;28;20016;-38
2024/01/23 01:59:00;;;;;;;17.17;2.80;;;7.90;99.90;;;;;;5099784;28;20474;-33
2024/01/23 02:01:27;;;;;;;12.02;2.80;;;7.80;99.90;;;;;;5098586;28;20130;-36
2024/01/23 02:03:56;;;;;;;8.77;2.72;;;7.80;99.90;;;;;;5099679;28;20030;-34
2024/01/23 02:06:23;;;;;;;11.20;2.67;;;7.80;99.90;;;;;;5099088;28;20074;-37
2024/01/23 02:08:50;;;;;;;12.43;3.40;;;7.80;99.90;;;;;;5098271;28;20508;-35
2024/01/23 02:11:15;;;;;;;11.43;2.67;;;7.70;99.90;;;;;;5098629;28;20039;-36
2024/01/23 02:13:42;;;;;;;11.02;3.17;;;7.70;99.90;;;;;;5098858;28;20037;-34
2024/01/23 02:16:08;;;;;;;11.77;3.00;;;7.70;99.90;;;;;;5098418;28;20030;-35
2024/01/23 02:18:33;;;;;;;17.48;3.33;;;7.60;99.90;;;;;;5098864;28;20031;-37
2024/01/23 02:20:59;;;;;;;12.70;3.40;;;7.60;99.90;;;;;;5098465;28;20027;-38
2024/01/23 02:23:29;;;;;;;12.90;3.17;;;7.50;99.90;;;;;;5099267;28;20539;-35
2024/01/23 02:25:54;;;;;;;12.00;2.83;;;7.50;99.90;;;;;;5095094;28;20165;-33
2024/01/23 02:28:23;;;;;;;17.33;3.05;;;7.50;99.90;;;;;;5098362;28;20456;-35
2024/01/23 02:30:49;;;;;;;15.55;3.67;;;7.50;99.90;;;;;;5099840;28;20031;-36
2024/01/23 02:33:14;;;;;;;13.20;3.22;;;7.50;99.90;;;;;;5098888;28;20035;-35
2024/01/23 02:35:40;;;;;;;14.70;3.65;;;7.40;99.90;;;;;;5098881;28;20073;-35
2024/01/23 02:38:08;;;;;;;12.70;3.38;;;7.40;99.90;;;;;;5098288;28;20520;-33
2024/01/23 02:40:34;;;;;;;16.70;3.05;;;7.40;99.90;;;;;;5098393;28;20503;-35
2024/01/23 02:43:00;;;;;;;14.52;3.65;;;7.40;99.90;;;;;;5097950;28;20027;-36
2024/01/23 02:45:25;;;;;;;9.77;2.67;;;7.40;99.90;;;;;;5099005;28;20531;-32
2024/01/23 02:47:51;;;;;;;10.38;2.63;;;7.50;99.90;;;;;;5098797;28;20482;-34
2024/01/23 02:50:16;;;;;;;14.68;3.30;;;7.50;99.90;;;;;;5098507;28;20055;-33
2024/01/23 02:52:42;;;;;;;18.23;3.15;;;7.50;99.90;;;;;;5098745;28;20032;-34
2024/01/23 02:55:08;;;;;;;12.88;3.05;;;7.50;99.90;;;;;;5101768;28;20367;-33
2024/01/23 02:57:33;;;;;;;14.32;3.10;;;7.50;99.90;;;;;;5101515;28;20078;-34
2024/01/23 02:59:59;;;;;;;20.85;4.18;;;7.50;99.90;;;;;;5102398;28;20499;-34
2024/01/23 03:02:25;;;;;;;13.95;3.15;;;7.50;99.90;;;;;;5101731;28;20046;-38
2024/01/23 03:04:50;;;;;;;19.48;4.35;;;7.60;99.90;;;;;;5102283;28;20030;-38
2024/01/23 03:07:17;;;;;;;17.83;4.10;;;7.60;99.90;;;;;;5102074;28;20461;-35
2024/01/23 03:09:43;;;;;;;15.77;3.33;;;7.60;99.90;;;;;;5091927;28;20026;-35
2024/01/23 03:12:19;;;;;;;16.42;3.80;;;7.60;99.90;;;;;;5101799;28;20043;-36
2024/01/23 03:14:47;;;;;;;13.70;3.50;;;7.60;99.90;;;;;;5103014;28;20051;-37
2024/01/23 03:17:14;;;;;;;17.25;3.67;;;7.60;99.90;;;;;;5101885;28;20043;-40
2024/01/23 03:19:40;;;;;;;16.40;3.47;;;7.60;99.90;;;;;;5102754;28;20024;-35
2024/01/23 03:22:07;;;;;;;13.43;3.40;;;7.60;99.90;;;;;;5102111;28;20031;-30
2024/01/23 03:24:33;;;;;;;17.38;3.92;;;7.60;99.90;;;;;;5101406;28;20835;-35
2024/01/23 03:26:59;;;;;;;15.73;3.22;;;7.70;99.90;;;;;;5101994;28;20028;-34
2024/01/23 03:29:25;;;;;;;19.80;4.07;;;7.70;99.90;;;;;;5101485;28;20051;-32
2024/01/23 03:31:52;;;;;;;13.25;3.58;;;7.60;99.90;;;;;;5101616;28;20149;-34
2024/01/23 03:34:19;;;;;;;16.45;4.68;;;7.60;99.90;;;;;;5102242;28;20024;-33
2024/01/23 03:36:45;;;;;;;15.63;3.85;;;7.60;99.90;;;;;;5102600;28;20521;-33
2024/01/23 03:39:11;;;;;;;20.05;4.13;;;7.60;99.90;;;;;;5101288;28;20094;-31
2024/01/23 03:41:37;;;;;;;16.38;4.43;;;7.60;99.90;;;;;;5101851;28;20036;-36
2024/01/23 03:44:06;;;;;;;15.43;3.80;;;7.50;99.90;;;;;;5101650;28;20011;-33
2024/01/23 03:46:32;;;;;;;15.38;3.55;;;7.50;99.90;;;;;;5100900;28;20024;-32
2024/01/23 03:48:58;;;;;;;16.38;3.80;;;7.50;99.90;;;;;;5102060;28;20031;-33
2024/01/23 03:51:24;;;;;;;14.68;3.70;;;7.50;99.90;;;;;;5101868;28;20027;-31
2024/01/23 03:53:49;;;;;;;17.98;3.58;;;7.50;99.90;;;;;;5100856;28;20061;-34
2024/01/23 03:56:18;;;;;;;12.18;3.22;;;7.50;99.90;;;;;;5101262;28;20027;-34
2024/01/23 03:58:44;;;;;;;15.60;3.60;;;7.50;99.90;;;;;;5101426;28;20872;-35
2024/01/23 04:01:10;;;;;;;20.13;4.10;;;7.40;99.90;;;;;;5100884;28;20023;-36
2024/01/23 04:03:35;;;;;;;16.50;3.75;;;7.50;99.90;;;;;;5101940;28;20861;-36
2024/01/23 04:06:02;;;;;;;13.43;3.35;;;7.50;99.90;;;;;;5098925;28;20023;-33
2024/01/23 04:08:27;;;;;;;18.33;4.25;;;7.50;99.90;;;;;;5101021;28;20084;-35
2024/01/23 04:10:53;;;;;;;17.38;3.20;;;7.50;99.90;;;;;;5100759;28;20023;-36
2024/01/23 04:13:18;;;;;;;13.30;3.28;;;7.60;99.90;;;;;;5100610;28;20047;-35
2024/01/23 04:15:44;;;;;;;13.88;3.00;;;7.60;99.90;;;;;;5102279;28;20110;-36
2024/01/23 04:18:09;;;;;;;10.63;2.88;;;7.60;99.90;;;;;;5100865;28;20386;-37
2024/01/23 04:20:37;;;;;;;16.52;3.15;;;7.60;99.90;;;;;;5100356;28;20028;-32
2024/01/23 04:23:03;;;;;;;9.80;2.70;;;7.60;99.90;;;;;;5100614;28;20562;-34
2024/01/23 04:25:29;;;;;;;11.07;3.53;;;7.60;99.90;;;;;;5100985;28;20042;-32
2024/01/23 04:27:54;;;;;;;19.55;4.25;;;7.60;99.90;;;;;;5100649;28;20034;-32
2024/01/23 04:30:20;;;;;;;14.82;2.85;;;7.60;99.90;;;;;;5101080;28;20028;-33
2024/01/23 04:32:45;;;;;;;12.32;3.38;;;7.50;99.90;;;;;;5101961;28;20023;-35
2024/01/23 04:35:12;;;;;;;12.70;3.28;;;7.50;99.90;;;;;;5100312;28;20015;-37
2024/01/23 04:37:38;;;;;;;14.52;4.80;;;7.50;99.90;;;;;;5101246;28;20101;-37
2024/01/23 04:40:07;;;;;;;13.30;3.40;;;7.50;99.90;;;;;;5101174;28;20123;-36
2024/01/23 04:42:33;;;;;;;17.20;3.38;;;7.50;99.90;;;;;;5099316;28;20042;-33
2024/01/23 04:44:59;;;;;;;13.63;3.03;;;7.50;99.90;;;;;;5100611;28;20027;-34
2024/01/23 04:47:25;;;;;;;7.65;2.58;;;7.50;99.90;;;;;;5098866;28;20054;-32
2024/01/23 04:49:51;;;;;;;12.88;3.08;;;7.50;99.90;;;;;;5100097;28;20092;-33
2024/01/23 04:52:17;;;;;;;11.55;3.03;;;7.50;99.90;;;;;;5099102;28;20148;-35
2024/01/23 04:54:42;;;;;;;10.05;2.88;;;7.50;99.90;;;;;;5101250;28;20527;-34
2024/01/23 04:57:08;;;;;;;11.68;3.33;;;7.50;99.90;;;;;;5099713;28;20157;-30
2024/01/23 04:59:34;;;;;;;14.35;3.40;;;7.50;99.90;;;;;;5099733;28;20425;-30
2024/01/23 05:02:00;;;;;;;15.65;3.05;;;7.50;99.90;;;;;;5099733;28;20031;-34
2024/01/23 05:04:25;;;;;;;13.00;3.38;;;7.50;99.90;;;;;;5098804;28;20039;-34
2024/01/23 05:06:51;;;;;;;10.57;2.78;;;7.50;99.90;;;;;;5100021;28;20054;-32
2024/01/23 05:09:19;;;;;;;13.23;3.50;;;7.50;99.90;;;;;;5099850;28;20042;-33
2024/01/23 05:11:46;;;;;;;12.55;2.35;;;7.50;99.90;;;;;;5099841;28;20044;-34
2024/01/23 05:14:12;;;;;;;10.60;2.67;;;7.40;99.90;;;;;;5100530;28;20557;-34
2024/01/23 05:16:37;;;;;;;9.98;2.83;;;7.40;99.90;;;;;;5099570;28;20128;-35
2024/01/23 05:19:03;;;;;;;11.25;2.75;;;7.40;99.90;;;;;;5100582;28;20031;-36
2024/01/23 05:21:28;;;;;;;15.88;3.03;;;7.40;99.90;;;;;;5099609;28;20039;-35
2024/01/23 05:23:54;;;;;;;11.45;2.67;;;7.40;99.90;;;;;;5099389;28;20031;-34
2024/01/23 05:26:25;;;;;;;14.27;3.33;;;7.40;99.90;;;;;;5099418;28;20031;-34
2024/01/23 05:28:51;;;;;;;13.10;3.10;;;7.40;99.90;;;;;;5098633;28;20137;-32
2024/01/23 05:31:17;;;;;;;14.85;2.67;;;7.50;99.90;;;;;;5099019;28;20940;-36
2024/01/23 05:33:42;;;;;;;11.50;2.75;;;7.50;99.90;;;;;;5099906;28;20027;-35
2024/01/23 05:36:10;;;;;;;10.25;2.70;;;7.50;99.90;;;;;;5100047;28;20028;-37
2024/01/23 05:38:36;;;;;;;10.93;2.80;;;7.40;99.90;;;;;;5098634;28;20023;-35
2024/01/23 05:41:06;;;;;;;9.85;2.70;;;7.40;99.90;;;;;;5099708;28;20063;-37
2024/01/23 05:43:37;;;;;;;9.38;3.00;;;7.40;99.90;;;;;;5099406;28;20080;-36
2024/01/23 05:46:03;;;;;;;9.65;2.40;;;7.40;99.90;;;;;;5099271;28;20026;-37
2024/01/23 05:48:29;;;;;;;8.18;2.55;;;7.50;99.90;;;;;;5099564;28;20032;-34
2024/01/23 05:50:54;;;;;;;9.90;3.03;;;7.40;99.90;;;;;;5099896;28;20546;-36
2024/01/23 05:53:20;;;;;;;11.57;3.42;;;7.50;99.90;;;;;;5098477;28;20768;-36
2024/01/23 05:55:45;;;;;;;10.15;2.95;;;7.40;99.90;;;;;;5099488;28;20059;-37
2024/01/23 05:58:11;;;;;;;11.45;2.88;;;7.40;99.90;;;;;;5099377;28;20030;-35
2024/01/23 06:00:37;;;;;;;15.15;3.28;;;7.40;99.90;;;;;;5098338;28;20118;-37
2024/01/23 06:03:03;;;;;;;15.48;3.60;;;7.30;99.90;;;;;;5099375;28;20032;-38
2024/01/23 06:05:29;;;;;;;16.75;3.85;;;7.30;99.90;;;;;;5099521;28;20038;-31
2024/01/23 06:07:54;;;;;;;11.88;3.00;;;7.20;99.90;;;;;;5099156;28;20047;-37
2024/01/23 06:10:20;;;;;;;10.70;2.92;;;7.20;99.90;;;;;;5099424;28;20055;-38
2024/01/23 06:12:45;;;;;;;10.48;2.70;;;7.20;99.90;;;;;;5099265;28;20515;-36
2024/01/23 06:15:11;;;;;;;14.00;3.15;;;7.10;99.90;;;;;;5099583;28;20039;-32
2024/01/23 06:17:46;;;;;;;10.95;3.25;;;7.00;99.90;;;;;;5099181;28;20023;-37
2024/01/23 06:20:12;;;;;;;12.88;2.83;;;7.00;99.90;;;;;;5098323;28;20028;-34
2024/01/23 06:22:39;;;;;;;8.77;2.50;;;7.00;99.90;;;;;;5098600;28;20060;-35
2024/01/23 06:25:07;;;;;;;11.40;2.80;;;6.90;99.90;;;;;;5099181;28;20050;-37
2024/01/23 06:27:33;;;;;;;11.77;2.92;;;6.90;99.90;;;;;;5097819;28;20526;-35
2024/01/23 06:29:59;;;;;;;10.75;2.70;;;6.80;99.90;;;;;;5102211;28;20092;-35
2024/01/23 06:32:27;;;;;;;10.27;2.42;;;6.80;99.90;;;;;;5103057;28;20024;-35
2024/01/23 06:34:53;;;;;;;13.25;2.78;;;6.70;99.90;;;;;;5102779;28;20024;-35
2024/01/23 06:37:20;;;;;;;10.43;2.58;;;6.70;99.90;;;;;;5103641;28;20069;-36
2024/01/23 06:39:46;;;;;;;9.15;2.40;;;6.70;99.90;;;;;;5100157;28;20023;-33
2024/01/23 06:42:11;;;;;;;10.88;2.53;;;6.70;99.90;;;;;;5101420;28;20043;-35
2024/01/23 06:44:38;;;;;;;13.13;2.85;;;6.60;99.90;;;;;;5101394;28;20012;-33
2024/01/23 06:47:04;;;;;;;13.77;3.63;;;6.60;99.90;;;;;;5102308;28;20024;-35
2024/01/23 06:49:33;;;;;;;12.77;3.00;;;6.60;99.90;;;;;;5100690;28;20395;-38
2024/01/23 06:51:59;;;;;;;9.48;2.60;;;6.50;99.90;;;;;;5102110;28;20039;-35
2024/01/23 06:54:25;;;;;;;9.60;2.97;;;6.50;99.90;;;;;;5101711;28;20019;-35
2024/01/23 06:56:50;;;;;;;8.80;2.63;;;6.40;99.90;;;;;;5101157;28;20024;-35
2024/01/23 06:59:16;;;;;;;12.00;2.30;;;6.40;99.90;;;;;;5101880;28;20817;-35
2024/01/23 07:01:42;;;;;;;8.90;2.00;;;6.40;99.90;;;;;;5102070;28;20031;-37
2024/01/23 07:04:10;;;;;;;7.75;2.50;;;6.40;99.90;;;;;;5101922;28;20023;-37
2024/01/23 07:06:36;;;;;;;6.88;1.77;;;6.30;99.90;;;;;;5100983;28;20027;-37
2024/01/23 07:09:04;;;;;;;5.80;1.83;;;6.30;99.90;;;;;;5100126;28;20161;-34
2024/01/23 07:11:30;;;;;;;5.78;1.65;;;6.30;99.90;;;;;;5100470;28;20048;-38
2024/01/23 07:13:56;;;;;;;7.47;2.05;;;6.20;99.90;;;;;;5100871;28;20134;-35
2024/01/23 07:16:22;;;;;;;5.72;2.03;;;6.20;99.90;;;;;;5100576;28;20736;-37
2024/01/23 07:18:47;;;;;;;9.05;2.28;;;6.10;99.90;;;;;;5102116;28;20020;-37
2024/01/23 07:21:13;;;;;;;7.18;2.10;;;6.10;99.90;;;;;;5101440;28;20115;-37
2024/01/23 07:23:39;;;;;;;7.63;2.58;;;6.10;99.90;;;;;;5099902;28;20772;-37
2024/01/23 07:26:05;;;;;;;7.47;1.90;;;6.00;99.90;;;;;;5100775;28;20031;-37
2024/01/23 07:28:31;;;;;;;10.55;2.60;;;6.00;99.90;;;;;;5101369;28;20130;-34
2024/01/23 07:30:56;;;;;;;10.18;2.72;;;5.90;99.90;;;;;;5101218;28;20022;-37
2024/01/23 07:33:22;;;;;;;12.50;2.70;;;5.90;99.90;;;;;;5101563;28;20058;-33
2024/01/23 07:35:47;;;;;;;12.45;2.60;;;5.90;99.90;;;;;;5102157;28;20024;-35
2024/01/23 07:38:13;;;;;;;7.70;2.47;;;5.90;99.90;;;;;;5100270;28;20042;-35
2024/01/23 07:40:39;;;;;;;10.57;2.50;;;5.80;99.90;;;;;;5100745;28;20398;-35
2024/01/23 07:43:05;;;;;;;9.75;2.35;;;5.80;99.90;;;;;;5101809;28;20042;-33
2024/01/23 07:45:31;;;;;;;11.10;2.53;;;5.80;99.90;;;;;;5101030;28;20019;-33
2024/01/23 07:47:57;;;;;;;9.07;2.97;;;5.70;99.90;;;;;;5101416;28;20390;-36
2024/01/23 07:50:22;;;;;;;9.55;2.50;;;5.70;99.90;;;;;;5101380;28;20085;-35
2024/01/23 07:52:48;;;;;;;9.90;3.15;;;5.70;99.90;;;;;;5100441;28;20070;-37
2024/01/23 07:55:14;;;;;;;7.28;1.85;;;5.70;99.90;;;;;;5101056;28;20118;-35
2024/01/23 07:57:39;;;;;;;11.13;2.40;;;5.60;99.90;;;;;;5101363;28;20020;-34
2024/01/23 08:00:07;;;;;;;11.77;2.42;;;5.60;99.90;;;;;;5100774;28;20032;-35
2024/01/23 08:02:32;;;;;;;9.38;2.03;;;5.60;99.90;;;;;;5099414;28;20493;-36
2024/01/23 08:04:59;;;;;;;9.68;2.45;;;5.60;99.90;;;;;;5100577;28;20030;-34
2024/01/23 08:07:24;;;;;;;10.40;2.63;;;5.60;99.90;;;;;;5100449;28;20036;-36
2024/01/23 08:09:50;;;;;;;10.65;2.47;;;5.60;99.90;;;;;;5101016;28;20032;-35
2024/01/23 08:12:16;;;;;;;10.77;2.63;;;5.60;99.90;;;;;;5100425;28;20048;-35
2024/01/23 08:14:42;;;;;;;8.07;2.17;;;5.70;99.90;;;;;;5100904;28;20077;-34
2024/01/23 08:17:08;;;;;;;8.63;2.03;;;5.70;99.90;;;;;;5100699;28;20036;-34
2024/01/23 08:19:33;;;;;;;7.25;2.20;;;5.70;99.90;;;;;;5100052;28;20019;-34
2024/01/23 08:21:59;;;;;;;7.47;1.75;;;5.70;99.90;;;;;;5100781;28;20130;-34
2024/01/23 08:24:24;;;;;;;7.47;1.88;;;5.70;99.90;;;;;;5100414;28;20031;-33
2024/01/23 08:26:54;;;;;;;9.88;1.88;;;5.70;99.90;;;;;;5100776;28;20042;-34
2024/01/23 08:29:20;;;;;;;9.18;2.08;;;5.70;99.90;;;;;;5100976;28;20045;-36
2024/01/23 08:31:46;;;;;;;13.30;2.50;;;5.80;99.90;;;;;;5101275;28;20809;-34
2024/01/23 08:34:14;;;;;;;11.50;2.10;;;5.80;99.90;;;;;;5099585;28;20024;-35
2024/01/23 08:36:40;;;;;;;10.75;2.95;;;5.80;99.90;;;;;;5100941;28;20055;-36
2024/01/23 08:39:06;;;;;;;10.70;2.20;;;5.80;99.90;;;;;;5099539;28;20138;-39
2024/01/23 08:41:31;;;;;;;10.38;2.50;;;5.90;99.90;;;;;;5100210;28;20031;-37
2024/01/23 08:43:57;;;;;;;7.70;1.88;;;5.90;99.90;;;;;;5100148;28;20069;-35
2024/01/23 08:46:22;;;;;;;11.00;2.45;;;6.00;99.90;;;;;;5100279;28;20035;-36
2024/01/23 08:48:49;;;;;;;12.23;2.53;;;6.00;99.90;;;;;;5099127;28;20481;-34
2024/01/23 08:51:15;;;;;;;16.23;3.55;;;6.00;99.90;;;;;;5099188;28;20027;-37
2024/01/23 08:53:40;;;;;;;9.60;3.03;;;6.00;99.90;;;;;;5100856;28;20035;-34
2024/01/23 08:56:06;;;;;;;9.32;2.38;;;6.10;99.90;;;;;;5099507;28;20030;-37
2024/01/23 08:58:32;;;;;;;10.00;2.40;;;6.10;99.90;;;;;;5099904;28;20034;-36
2024/01/23 09:00:58;;;;;;;13.82;3.00;;;6.10;99.90;;;;;;5099738;28;20119;-36
2024/01/23 09:03:23;;;;;;;9.98;2.40;;;6.20;99.90;;;;;;5099430;28;20109;-36
2024/01/23 09:05:50;;;;;;;13.48;2.92;;;6.20;99.90;;;;;;5099931;28;20157;-37
2024/01/23 09:08:16;;;;;;;16.90;3.60;;;6.30;99.90;;;;;;5101579;28;20043;-36
2024/01/23 09:10:41;;;;;;;11.05;3.17;;;6.30;99.90;;;;;;5099831;28;20055;-31
2024/01/23 09:13:07;;;;;;;15.77;3.97;;;6.30;99.90;;;;;;5099335;28;20051;-35
2024/01/23 09:15:33;;;;;;;11.27;2.92;;;6.40;99.90;;;;;;5098844;28;20039;-36
2024/01/23 09:17:59;;;;;;;17.73;4.75;;;6.40;99.90;;;;;;5099645;28;20104;-37
2024/01/23 09:20:24;;;;;;;14.27;3.20;;;6.50;99.90;;;;;;5099577;28;20036;-35
2024/01/23 09:22:50;;;;;;;15.85;3.65;;;6.50;99.90;;;;;;5098861;28;20047;-38
2024/01/23 09:25:17;;;;;;;16.38;3.67;;;6.50;99.90;;;;;;5099424;28;20034;-32
2024/01/23 09:27:43;;;;;;;17.83;3.60;;;6.50;99.90;;;;;;5099797;28;20395;-36
2024/01/23 09:30:09;;;;;;;15.98;4.07;;;6.60;99.90;;;;;;5095828;28;20031;-34
2024/01/23 09:32:34;;;;;;;21.23;4.10;;;6.60;99.90;;;;;;5098233;28;20533;-34
2024/01/23 09:35:00;;;;;;;12.68;3.33;;;6.60;99.90;;;;;;5098099;28;20038;-34
2024/01/23 09:37:27;;;;;;;15.63;3.50;;;6.60;99.90;;;;;;5099150;28;20042;-34
2024/01/23 09:39:52;;;;;;;16.08;4.55;;;6.70;99.90;;;;;;5098056;28;20189;-36
2024/01/23 09:42:21;;;;;;;15.63;3.28;;;6.70;99.90;;;;;;5099411;28;20507;-36
2024/01/23 09:44:50;;;;;;;13.77;3.75;;;6.70;99.90;;;;;;5099346;28;20028;-33
2024/01/23 09:47:15;;;;;;;15.23;3.80;;;6.80;99.90;;;;;;5095477;28;20074;-37
2024/01/23 09:49:42;;;;;;;16.23;3.20;;;6.90;99.90;;;;;;5099072;28;20550;-34
2024/01/23 09:52:09;;;;;;;18.02;3.63;;;6.90;99.90;;;;;;5098084;28;20034;-37
2024/01/23 09:54:35;;;;;;;18.35;4.03;;;6.90;99.90;;;;;;5078588;28;20017;-34
2024/01/23 09:57:01;;;;;;;18.38;4.50;;;7.00;99.90;;;;;;5093106;28;20034;-35
2024/01/23 09:59:27;;;;;;;12.30;2.97;;;7.00;99.90;;;;;;5097750;28;20103;-32
2024/01/23 10:01:56;;;;;;;23.20;5.75;;;7.00;99.90;;;;;;5097746;28;20138;-35
2024/01/23 10:04:22;;;;;;;18.80;3.85;;;7.10;99.90;;;;;;5102365;28;20027;-34
2024/01/23 10:06:48;;;;;;;15.65;3.28;;;7.10;99.90;;;;;;5102704;28;20019;-35
2024/01/23 10:09:13;;;;;;;15.85;3.35;;;7.20;99.90;;;;;;5103479;28;20028;-37
2024/01/23 10:11:39;;;;;;;16.10;3.75;;;7.20;99.90;;;;;;5103239;28;20089;-31
2024/01/23 10:14:06;;;;;;;14.10;3.35;;;7.20;99.90;;;;;;5102899;28;20546;-31
2024/01/23 10:16:32;;;;;;;13.55;3.70;;;7.30;99.90;;;;;;5103202;28;20027;-35
2024/01/23 10:18:59;;;;;;;15.52;3.40;;;7.30;99.90;;;;;;5102247;28;20031;-34
2024/01/23 10:21:25;;;;;;;16.33;4.13;;;7.40;99.90;;;;;;5102503;28;20446;-34
2024/01/23 10:23:53;;;;;;;16.30;3.92;;;7.40;99.90;;;;;;5103270;28;20012;-35
2024/01/23 10:26:20;;;;;;;13.60;4.30;;;7.40;99.90;;;;;;5102951;28;20035;-33
2024/01/23 10:28:46;;;;;;;11.90;3.38;;;7.40;99.90;;;;;;5102970;28;20023;-35
2024/01/23 10:31:13;;;;;;;18.25;3.85;;;7.50;99.90;;;;;;5103442;28;20038;-35
2024/01/23 10:33:40;;;;;;;15.07;3.45;;;7.50;99.90;;;;;;5102083;28;20123;-36
2024/01/23 10:36:08;;;;;;;15.82;3.00;;;7.60;99.90;;;;;;5103158;28;20106;-37
2024/01/23 10:38:37;;;;;;;12.18;2.92;;;7.50;99.90;;;;;;5102569;28;20062;-34
2024/01/23 10:41:07;;;;;;;14.45;3.33;;;7.60;99.90;;;;;;5101421;27;20955;-36
2024/01/23 10:43:34;;;;;;;15.75;3.58;;;7.60;99.90;;;;;;5101934;28;20112;-38
2024/01/23 10:46:03;;;;;;;12.40;3.28;;;7.70;99.90;;;;;;5102452;28;20139;-36
2024/01/23 10:48:33;;;;;;;14.00;3.63;;;7.70;99.90;;;;;;5102290;28;20065;-36
2024/01/23 10:51:06;;;;;;;16.75;4.10;;;7.70;99.90;;;;;;5102901;28;20115;-36
2024/01/23 10:53:40;;;;;;;15.63;3.45;;;7.70;99.90;;;;;;5102681;28;20770;-33
2024/01/23 10:56:12;;;;;;;13.00;3.15;;;7.80;99.90;;;;;;5102064;28;20042;-33
2024/01/23 10:58:39;;;;;;;14.85;3.58;;;7.80;99.90;;;;;;5102741;28;20102;-34
2024/01/23 11:01:09;;;;;;;16.83;3.40;;;7.80;99.90;;;;;;5102501;28;20027;-35
2024/01/23 11:03:38;;;;;;;16.92;3.70;;;7.80;99.90;;;;;;5102393;28;20019;-38
2024/01/23 11:06:19;;;;;;;16.70;4.40;;;7.80;99.90;;;;;;5102673;28;20090;-35
2024/01/23 11:08:50;;;;;;;14.98;4.57;;;7.80;99.90;;;;;;5102616;28;20080;-36
2024/01/23 11:11:26;;;;;;;9.57;2.80;;;7.90;99.90;;;;;;5102474;28;20055;-35
2024/01/23 11:13:58;;;;;;;13.65;3.30;;;7.90;99.90;;;;;;5101861;28;20019;-35
2024/01/23 11:16:24;;;;;;;17.90;3.95;;;8.00;99.90;;;;;;5102161;28;20070;-35
2024/01/23 11:18:53;;;;;;;16.67;3.63;;;8.00;99.90;;;;;;5101638;28;20094;-38
2024/01/23 11:21:22;;;;;;;15.20;3.80;;;8.00;99.90;;;;;;5101788;28;20063;-36
2024/01/23 11:23:58;;;;;;;15.85;3.42;;;8.00;99.90;;;;;;5101378;28;20028;-37
2024/01/23 11:26:26;;;;;;;12.82;3.17;;;8.00;99.90;;;;;;5091606;28;20035;-38
2024/01/23 11:28:54;;;;;;;11.25;3.22;;;8.00;99.90;;;;;;5101906;28;20015;-36
2024/01/23 11:31:21;;;;;;;12.75;3.22;;;8.10;99.90;;;;;;5101735;28;20095;-35
2024/01/23 11:33:48;;;;;;;11.20;2.75;;;8.10;99.90;;;;;;5103736;28;20062;-34
2024/01/23 11:36:21;;;;;;;11.85;3.58;;;8.10;99.90;;;;;;5097426;28;20019;-35
2024/01/23 11:38:51;;;;;;;10.15;3.15;;;8.20;99.90;;;;;;5101463;28;20042;-32
2024/01/23 11:41:24;;;;;;;17.73;3.80;;;8.20;99.90;;;;;;5100673;28;20063;-34
2024/01/23 11:44:15;;;;;;;15.48;3.40;;;8.20;99.90;;;;;;5100928;28;20379;-34
2024/01/23 11:46:42;;;;;;;12.68;3.20;;;8.30;99.90;;;;;;5099663;28;20015;-35
2024/01/23 11:49:10;;;;;;;18.33;3.90;;;8.40;99.90;;;;;;5102373;28;20047;-30
2024/01/23 11:51:37;;;;;;;13.60;3.60;;;8.40;99.90;;;;;;5099772;28;20142;-37
2024/01/23 11:54:07;;;;;;;16.23;4.03;;;8.50;99.90;;;;;;5101887;28;20030;-36
2024/01/23 11:56:33;;;;;;;18.38;3.92;;;8.50;99.90;;;;;;5102133;28;20157;-36
2024/01/23 11:58:59;;;;;;;13.40;3.88;;;8.60;99.90;;;;;;5101231;28;20780;-36
2024/01/23 12:01:29;;;;;;;17.17;4.30;;;8.60;99.90;;;;;;5100913;28;20039;-36
2024/01/23 12:03:55;;;;;;;11.25;3.30;;;8.60;99.90;;;;;;5080222;28;20094;-35
2024/01/23 12:06:22;;;;;;;17.55;3.55;;;8.70;99.90;;;;;;5093323;28;20039;-35
2024/01/23 12:08:55;;;;;;;15.07;3.20;;;8.70;99.90;;;;;;5100136;28;20721;-37
2024/01/23 12:11:21;;;;;;;13.43;3.15;;;8.70;99.90;;;;;;5099332;28;20435;-35
2024/01/23 12:13:48;;;;;;;20.50;5.15;;;8.70;99.90;;;;;;5100751;28;20027;-35
2024/01/23 12:16:14;;;;;;;15.60;3.47;;;8.70;99.90;;;;;;5100336;28;20019;-38
2024/01/23 12:18:41;;;;;;;15.43;3.97;;;8.80;99.90;;;;;;5099929;28;20027;-35
2024/01/23 12:21:07;;;;;;;13.02;3.25;;;8.80;99.90;;;;;;5101196;28;20023;-37
2024/01/23 12:23:33;;;;;;;12.80;3.22;;;8.90;99.90;;;;;;5101736;28;20020;-36
2024/01/23 12:25:59;;;;;;;11.60;3.15;;;8.80;99.90;;;;;;5099390;28;20628;-36
2024/01/23 12:28:27;;;;;;;13.63;3.03;;;8.80;99.90;;;;;;5101236;28;20024;-37
2024/01/23 12:30:53;;;;;;;9.57;2.80;;;8.90;99.90;;;;;;5100787;28;20035;-33
2024/01/23 12:33:19;;;;;;;11.15;3.03;;;8.90;99.90;;;;;;5100426;28;20042;-36
2024/01/23 12:35:46;;;;;;;11.27;3.13;;;8.90;99.90;;;;;;5100482;28;20020;-37
2024/01/23 12:38:19;;;;;;;15.40;3.72;;;9.00;99.90;;;;;;5100273;28;20027;-33
2024/01/23 12:40:46;;;;;;;12.35;3.55;;;9.00;99.90;;;;;;5100509;28;20111;-33
2024/01/23 12:43:12;;;;;;;14.48;3.80;;;9.10;99.90;;;;;;5100533;28;20114;-35
2024/01/23 12:45:38;;;;;;;12.23;3.10;;;9.10;99.90;;;;;;5101280;28;20113;-33